Terminal Aerodrome Forecast
Issued by NWS

Home | Current Version | Previous Version | Text Only | Print | Product List | Glossary Off
Versions: 1 2 3 4 5 6 7 8 9 10 11 12 13 14 15

000
FTUS45 KGGW 281138
TAFSDY
TAF
KSDY 281138Z 2812/2912 05004KT P6SM BKN007 OVC015
     FM281400 08005KT P6SM VCSH OVC015
     FM281700 10006KT P6SM BKN015
     FM281800 11006KT P6SM BKN030
     FM281900 10006KT P6SM VCTS BKN030CB
     FM282100 10005KT P6SM VCSH BKN040 PROB30 2821/2824 6SM TS
      OVC025CB
     FM290000 10006KT P6SM SCT070=

USA.gov is the U.S. government's official web portal to all federal, state and local government web resources and services.